createdAt,value
2023-05-08T00:01:58.938Z,5.07
2023-05-08T00:04:26.056Z,5.65
2023-05-08T00:06:53.109Z,5.53
2023-05-08T00:09:21.413Z,5.30
2023-05-08T00:11:48.539Z,5.68
2023-05-08T00:14:15.486Z,5.40
2023-05-08T00:16:42.445Z,5.03
2023-05-08T00:19:09.354Z,5.20
2023-05-08T00:21:36.324Z,5.55
2023-05-08T00:24:03.203Z,4.95
2023-05-08T00:26:30.118Z,4.87
2023-05-08T00:28:56.957Z,5.25
2023-05-08T00:31:23.791Z,5.68
2023-05-08T00:33:50.749Z,4.75
2023-05-08T00:36:17.605Z,5.18
2023-05-08T00:38:44.546Z,4.97
2023-05-08T00:41:11.392Z,4.75
2023-05-08T00:43:38.249Z,5.40
2023-05-08T00:46:05.680Z,4.90
2023-05-08T00:48:34.937Z,5.25
2023-05-08T00:51:04.690Z,4.83
2023-05-08T00:53:36.238Z,5.30
2023-05-08T00:56:03.399Z,5.05
2023-05-08T00:58:32.466Z,4.72
2023-05-08T01:01:00.879Z,5.28
2023-05-08T01:03:28.966Z,5.63
2023-05-08T01:05:55.851Z,5.68
2023-05-08T01:08:23.241Z,5.53
2023-05-08T01:11:01.823Z,5.70
2023-05-08T01:13:34.352Z,5.40
2023-05-08T01:16:12.086Z,5.57
2023-05-08T01:18:47.540Z,6.25
2023-05-08T01:21:14.421Z,6.05
2023-05-08T01:23:59.782Z,5.78
2023-05-08T01:26:35.340Z,6.28
2023-05-08T01:29:38.967Z,5.73
2023-05-08T01:32:14.786Z,6.40
2023-05-08T01:34:48.804Z,5.93
2023-05-08T01:37:22.413Z,6.30
2023-05-08T01:40:17.593Z,6.07
2023-05-08T01:42:47.034Z,6.70
2023-05-08T01:45:32.296Z,6.72
2023-05-08T01:48:12.120Z,6.47
2023-05-08T01:50:46.141Z,6.93
2023-05-08T01:53:28.864Z,6.78
2023-05-08T01:56:00.529Z,6.60
2023-05-08T01:58:29.215Z,7.00
2023-05-08T02:00:58.319Z,6.50
2023-05-08T02:03:26.177Z,6.15
2023-05-08T02:05:57.840Z,6.53
2023-05-08T02:08:26.614Z,6.43
2023-05-08T02:10:55.134Z,6.60
2023-05-08T02:13:22.565Z,6.47
2023-05-08T02:15:53.118Z,6.25
2023-05-08T02:18:21.660Z,6.95
2023-05-08T02:20:51.233Z,6.57
2023-05-08T02:23:19.518Z,6.47
2023-05-08T02:25:47.868Z,6.60
2023-05-08T02:28:16.734Z,5.85
2023-05-08T02:30:45.071Z,6.30
2023-05-08T02:33:14.440Z,6.73
2023-05-08T02:35:43.993Z,6.82
2023-05-08T02:38:14.254Z,6.35
2023-05-08T02:40:50.042Z,6.30
2023-05-08T02:43:17.384Z,6.50
2023-05-08T02:45:58.869Z,6.97
2023-05-08T02:49:24.675Z,6.50
2023-05-08T02:51:57.732Z,6.18
2023-05-08T02:54:32.872Z,6.57
2023-05-08T02:57:30.040Z,6.50
2023-05-08T03:00:02.913Z,6.60
2023-05-08T03:02:39.503Z,6.20
2023-05-08T03:05:19.249Z,6.20
2023-05-08T03:07:51.121Z,6.60
2023-05-08T03:10:19.679Z,7.20
2023-05-08T03:12:50.046Z,8.23
2023-05-08T03:15:24.312Z,7.13
2023-05-08T03:17:55.213Z,7.60
2023-05-08T03:20:24.434Z,6.18
2023-05-08T03:22:53.490Z,7.13
2023-05-08T03:25:21.862Z,7.00
2023-05-08T03:27:50.633Z,7.22
2023-05-08T03:30:18.676Z,6.45
2023-05-08T03:32:46.956Z,6.53
2023-05-08T03:35:14.802Z,6.40
2023-05-08T03:37:42.135Z,6.13
2023-05-08T03:40:09.788Z,6.28
2023-05-08T03:42:38.684Z,6.70
2023-05-08T03:45:07.451Z,6.60
2023-05-08T03:47:36.165Z,6.50
2023-05-08T03:50:04.195Z,6.63
2023-05-08T03:52:32.588Z,6.35
2023-05-08T03:54:59.430Z,5.93
2023-05-08T03:57:30.824Z,6.00
2023-05-08T04:00:06.538Z,6.45
2023-05-08T04:02:36.447Z,6.33
2023-05-08T04:05:18.577Z,6.47
2023-05-08T04:07:53.767Z,6.10
2023-05-08T04:10:30.974Z,6.25
2023-05-08T04:13:05.548Z,6.15
2023-05-08T04:15:37.805Z,5.30
2023-05-08T04:18:11.054Z,5.55
2023-05-08T04:20:41.917Z,5.90
2023-05-08T04:23:09.656Z,5.68
2023-05-08T04:25:37.977Z,5.72
2023-05-08T04:28:05.675Z,5.50
2023-05-08T04:30:33.273Z,5.32
2023-05-08T04:33:03.445Z,5.50
2023-05-08T04:35:30.805Z,5.65
2023-05-08T04:37:59.149Z,4.78
2023-05-08T04:40:26.265Z,5.10
2023-05-08T04:42:53.136Z,5.53
2023-05-08T04:45:20.144Z,4.80
2023-05-08T04:47:47.117Z,5.00
2023-05-08T04:50:14.054Z,5.03
2023-05-08T04:52:40.893Z,4.43
2023-05-08T04:55:08.570Z,4.63
2023-05-08T04:57:35.420Z,5.00
2023-05-08T05:00:02.306Z,5.53
2023-05-08T05:02:29.322Z,6.38
2023-05-08T05:04:56.256Z,6.83
2023-05-08T05:07:23.213Z,7.38
2023-05-08T05:09:50.240Z,7.97
2023-05-08T05:12:17.183Z,6.72
2023-05-08T05:14:45.994Z,7.13
2023-05-08T05:17:12.957Z,6.30
2023-05-08T05:19:39.870Z,6.43
2023-05-08T05:22:06.725Z,6.32
2023-05-08T05:24:33.691Z,7.22
2023-05-08T05:27:00.551Z,6.57
2023-05-08T05:29:27.389Z,7.00
2023-05-08T05:31:54.767Z,6.30
2023-05-08T05:34:21.803Z,6.63
2023-05-08T05:36:48.752Z,6.32
2023-05-08T05:39:15.747Z,7.97
2023-05-08T05:41:42.563Z,6.50
2023-05-08T05:44:09.324Z,7.38
2023-05-08T05:46:36.301Z,7.03
2023-05-08T05:49:03.161Z,7.70
2023-05-08T05:51:29.900Z,7.60
2023-05-08T05:53:56.887Z,6.07
2023-05-08T05:56:23.787Z,6.32
2023-05-08T05:58:50.556Z,6.32
2023-05-08T06:01:20.672Z,6.57
2023-05-08T06:03:47.711Z,6.45
2023-05-08T06:06:14.615Z,5.97
2023-05-08T06:08:41.433Z,6.60
2023-05-08T06:11:08.304Z,6.22
2023-05-08T06:13:35.120Z,5.63
2023-05-08T06:16:01.996Z,5.07
2023-05-08T06:18:28.812Z,4.20
2023-05-08T06:20:58.859Z,4.53
2023-05-08T06:23:26.407Z,5.35
2023-05-08T06:25:54.330Z,4.63
2023-05-08T06:28:21.135Z,5.00
2023-05-08T06:30:48.095Z,5.30
2023-05-08T06:33:15.000Z,4.85
2023-05-08T06:35:45.869Z,4.88
2023-05-08T06:38:12.828Z,5.07
2023-05-08T06:40:46.443Z,5.00
2023-05-08T06:43:13.737Z,4.13
2023-05-08T06:45:40.901Z,4.70
2023-05-08T06:48:08.024Z,4.70
2023-05-08T06:50:38.275Z,4.10
2023-05-08T06:53:05.187Z,4.75
2023-05-08T06:55:32.090Z,4.40
2023-05-08T06:57:59.199Z,4.38
2023-05-08T07:00:26.331Z,3.80
2023-05-08T07:02:53.341Z,3.90
2023-05-08T07:05:20.674Z,3.97
2023-05-08T07:07:47.642Z,4.37
2023-05-08T07:10:14.412Z,4.60
2023-05-08T07:12:41.517Z,4.15
2023-05-08T07:15:24.088Z,3.80
2023-05-08T07:17:53.022Z,4.28
2023-05-08T07:20:19.995Z,3.10
2023-05-08T07:22:46.806Z,2.58
2023-05-08T07:25:13.919Z,3.40
2023-05-08T07:27:41.010Z,3.00
2023-05-08T07:30:08.922Z,3.45
2023-05-08T07:32:36.157Z,2.93
2023-05-08T07:35:03.483Z,2.70
2023-05-08T07:37:30.393Z,3.20
2023-05-08T07:39:57.389Z,3.10
2023-05-08T07:42:24.221Z,3.17
2023-05-08T07:44:54.972Z,3.00
2023-05-08T07:47:22.860Z,3.03
2023-05-08T07:49:49.771Z,2.70
2023-05-08T07:52:16.720Z,2.90
2023-05-08T07:54:45.526Z,3.10
2023-05-08T07:57:12.367Z,2.90
2023-05-08T07:59:39.289Z,3.00
2023-05-08T08:02:06.656Z,3.03
2023-05-08T08:04:33.778Z,3.58
2023-05-08T08:07:03.104Z,3.28
2023-05-08T08:09:29.992Z,3.07
2023-05-08T08:11:56.799Z,3.30
2023-05-08T08:14:23.661Z,2.97
2023-05-08T08:16:50.745Z,2.78
2023-05-08T08:19:17.642Z,2.80
2023-05-08T08:21:44.648Z,2.87
2023-05-08T08:24:11.567Z,2.60
2023-05-08T08:26:38.333Z,2.50
2023-05-08T08:29:05.187Z,3.92
2023-05-08T08:31:32.162Z,4.05
2023-05-08T08:33:58.970Z,3.40
2023-05-08T08:36:25.860Z,3.53
2023-05-08T08:38:53.224Z,3.50
2023-05-08T08:41:20.054Z,3.55
2023-05-08T08:43:46.974Z,2.97
2023-05-08T08:46:14.896Z,3.23
2023-05-08T08:48:47.226Z,2.60
2023-05-08T08:51:33.310Z,2.08
2023-05-08T08:54:14.604Z,2.20
2023-05-08T08:56:42.513Z,1.83
2023-05-08T08:59:10.819Z,3.47
2023-05-08T09:01:44.428Z,2.08
2023-05-08T09:04:11.739Z,2.13
2023-05-08T09:06:39.680Z,1.88
2023-05-08T09:09:06.949Z,1.40
2023-05-08T09:11:33.918Z,1.60
2023-05-08T09:14:00.828Z,2.00
2023-05-08T09:16:28.604Z,1.77
2023-05-08T09:18:55.644Z,1.90
2023-05-08T09:21:22.937Z,1.75
2023-05-08T09:24:04.095Z,1.90
2023-05-08T09:26:39.920Z,1.80
2023-05-08T09:29:20.947Z,2.10
2023-05-08T09:31:52.365Z,1.73
2023-05-08T09:34:25.176Z,1.75
2023-05-08T09:36:51.993Z,1.80
2023-05-08T09:39:26.205Z,1.50
2023-05-08T09:42:04.090Z,1.52
2023-05-08T09:44:51.079Z,2.10
2023-05-08T09:47:22.943Z,1.60
2023-05-08T09:50:06.802Z,1.67
2023-05-08T09:52:34.748Z,1.77
2023-05-08T09:55:08.413Z,1.85
2023-05-08T09:57:37.842Z,1.60
2023-05-08T10:00:11.847Z,1.70
2023-05-08T10:02:40.818Z,1.60
2023-05-08T10:05:34.937Z,1.70
2023-05-08T10:08:21.705Z,2.00
2023-05-08T10:10:48.826Z,1.80
2023-05-08T10:13:15.886Z,1.60
2023-05-08T10:15:44.366Z,1.77
2023-05-08T10:18:11.944Z,1.60
2023-05-08T10:20:43.261Z,1.85
2023-05-08T10:23:15.120Z,1.55
2023-05-08T10:25:54.684Z,1.55
2023-05-08T10:28:58.667Z,2.20
2023-05-08T10:31:31.509Z,1.58
2023-05-08T10:34:01.710Z,1.80
2023-05-08T10:36:32.716Z,1.80
2023-05-08T10:38:59.607Z,1.85
2023-05-08T10:41:27.022Z,1.87
2023-05-08T10:43:54.788Z,2.22
2023-05-08T10:46:27.791Z,2.70
2023-05-08T10:49:08.847Z,1.40
2023-05-08T10:51:58.977Z,1.90
2023-05-08T10:54:54.372Z,1.60
2023-05-08T10:57:21.458Z,1.80
2023-05-08T10:59:48.330Z,1.80
2023-05-08T11:02:17.904Z,1.75
2023-05-08T11:04:45.289Z,1.90
2023-05-08T11:07:12.150Z,1.90
2023-05-08T11:09:47.864Z,1.80
2023-05-08T11:12:28.073Z,1.92
2023-05-08T11:15:03.956Z,1.75
2023-05-08T11:17:30.909Z,1.77
2023-05-08T11:20:02.871Z,2.10
2023-05-08T11:22:31.098Z,1.80
2023-05-08T11:25:06.713Z,1.60
2023-05-08T11:27:36.662Z,1.52
2023-05-08T11:30:23.345Z,1.98
2023-05-08T11:33:10.441Z,1.70
2023-05-08T11:35:58.233Z,2.10
2023-05-08T11:38:32.592Z,2.05
2023-05-08T11:41:20.902Z,1.70
2023-05-08T11:44:04.155Z,1.60
2023-05-08T11:47:03.694Z,1.50
2023-05-08T11:49:30.781Z,1.90
2023-05-08T11:51:59.382Z,1.70
2023-05-08T11:54:30.511Z,1.70
2023-05-08T11:56:57.559Z,1.85
2023-05-08T11:59:24.567Z,1.67
2023-05-08T12:04:22.096Z,1.80
2023-05-08T12:06:49.471Z,1.60
2023-05-08T12:09:18.406Z,1.48
2023-05-08T12:11:45.753Z,1.70
2023-05-08T12:14:13.448Z,1.50
2023-05-08T12:16:40.965Z,1.35
2023-05-08T12:19:12.699Z,1.67
2023-05-08T12:21:45.669Z,1.50
2023-05-08T12:24:13.581Z,1.67
2023-05-08T12:26:40.546Z,2.10
2023-05-08T12:29:08.019Z,1.70
2023-05-08T12:31:36.054Z,1.80
2023-05-08T12:34:06.558Z,1.58
2023-05-08T12:36:37.010Z,1.53
2023-05-08T12:39:14.892Z,1.50
2023-05-08T12:41:53.076Z,1.60
2023-05-08T12:44:23.351Z,1.90
2023-05-08T12:46:55.378Z,1.70
2023-05-08T12:49:30.984Z,1.97
2023-05-08T12:52:09.226Z,2.65
2023-05-08T12:54:41.516Z,2.17
2023-05-08T12:57:19.086Z,2.00
2023-05-08T12:59:46.596Z,1.80
2023-05-08T13:02:15.714Z,2.47
2023-05-08T13:04:43.476Z,1.77
2023-05-08T13:07:11.046Z,1.48
2023-05-08T13:09:40.270Z,2.78
2023-05-08T13:12:07.555Z,2.03
2023-05-08T13:14:34.504Z,1.80
2023-05-08T13:17:01.594Z,2.28
2023-05-08T13:19:28.817Z,1.60
2023-05-08T13:21:55.671Z,1.60
2023-05-08T13:24:22.621Z,1.60
2023-05-08T13:26:49.654Z,1.97
2023-05-08T13:29:16.524Z,1.50
2023-05-08T13:31:43.483Z,1.50
2023-05-08T13:34:10.393Z,2.05
2023-05-08T13:36:37.334Z,1.33
2023-05-08T13:39:04.289Z,1.53
2023-05-08T13:41:31.214Z,1.92
2023-05-08T13:43:58.148Z,2.08
2023-05-08T13:46:25.130Z,2.35
2023-05-08T13:48:52.255Z,1.83
2023-05-08T13:51:21.509Z,2.40
2023-05-08T13:53:48.319Z,2.13
2023-05-08T13:56:15.320Z,1.70
2023-05-08T13:58:42.203Z,1.60
2023-05-08T14:01:24.958Z,1.63
2023-05-08T14:03:55.546Z,1.60
2023-05-08T14:06:22.688Z,1.50
2023-05-08T14:08:51.466Z,1.58
2023-05-08T14:11:19.961Z,1.50
2023-05-08T14:13:46.835Z,1.58
2023-05-08T14:16:13.840Z,1.53
2023-05-08T14:18:40.999Z,1.50
2023-05-08T14:21:07.901Z,1.88
2023-05-08T14:23:34.793Z,1.45
2023-05-08T14:26:01.754Z,1.40
2023-05-08T14:28:28.702Z,1.70
2023-05-08T14:30:55.678Z,1.58
2023-05-08T14:33:22.647Z,1.60
2023-05-08T14:35:49.550Z,1.40
2023-05-08T14:38:16.412Z,1.42
2023-05-08T14:40:43.419Z,1.50
2023-05-08T14:43:10.275Z,1.30
2023-05-08T14:45:37.323Z,1.60
2023-05-08T14:48:04.555Z,1.27
2023-05-08T14:50:31.632Z,1.40
2023-05-08T14:52:58.623Z,1.30
2023-05-08T14:55:25.862Z,1.30
2023-05-08T14:57:53.192Z,1.65
2023-05-08T15:00:20.326Z,1.55
2023-05-08T15:02:47.486Z,1.50
2023-05-08T15:05:20.539Z,1.70
2023-05-08T15:07:50.696Z,1.90
2023-05-08T15:10:17.859Z,1.95
2023-05-08T15:12:44.839Z,1.90
2023-05-08T15:15:12.080Z,1.70
2023-05-08T15:17:39.098Z,1.80
2023-05-08T15:20:09.622Z,1.70
2023-05-08T15:22:36.735Z,1.38
2023-05-08T15:25:04.005Z,1.52
2023-05-08T15:27:30.972Z,1.60
2023-05-08T15:29:58.631Z,1.77
2023-05-08T15:32:25.783Z,1.70
2023-05-08T15:34:52.689Z,1.70
2023-05-08T15:37:19.665Z,1.55
2023-05-08T15:39:46.528Z,1.70
2023-05-08T15:42:13.434Z,1.70
2023-05-08T15:47:10.134Z,1.60
2023-05-08T15:49:37.114Z,1.77
2023-05-08T15:52:04.418Z,1.77
2023-05-08T15:54:31.262Z,1.80
2023-05-08T15:56:58.146Z,1.35
2023-05-08T15:59:25.074Z,1.80
2023-05-08T16:01:52.937Z,1.27
2023-05-08T16:04:20.972Z,1.20
2023-05-08T16:06:48.264Z,1.50
2023-05-08T16:09:15.445Z,1.23
2023-05-08T16:11:42.364Z,1.40
2023-05-08T16:14:09.424Z,1.40
2023-05-08T16:16:38.635Z,1.25
2023-05-08T16:19:05.848Z,1.43
2023-05-08T16:21:32.786Z,1.70
2023-05-08T16:24:00.820Z,1.60
2023-05-08T16:26:27.903Z,1.50
2023-05-08T16:28:54.921Z,1.58
2023-05-08T16:31:21.868Z,2.47
2023-05-08T16:33:48.752Z,2.10
2023-05-08T16:36:15.733Z,2.20
2023-05-08T16:38:42.671Z,2.10
2023-05-08T16:41:09.543Z,2.42
2023-05-08T16:43:36.435Z,2.40
2023-05-08T16:46:06.335Z,2.30
2023-05-08T16:48:34.752Z,2.45
2023-05-08T16:51:01.897Z,2.30
2023-05-08T16:53:30.457Z,2.47
2023-05-08T16:55:57.246Z,2.40
2023-05-08T16:58:24.092Z,2.83
2023-05-08T17:00:51.084Z,2.80
2023-05-08T17:03:18.050Z,2.75
2023-05-08T17:05:45.022Z,2.80
2023-05-08T17:08:11.903Z,2.50
2023-05-08T17:10:39.342Z,2.70
2023-05-08T17:13:06.418Z,2.35
2023-05-08T17:15:33.510Z,2.17
2023-05-08T17:18:02.786Z,2.40
2023-05-08T17:20:30.062Z,2.40
2023-05-08T17:22:57.040Z,2.33
2023-05-08T17:25:24.096Z,3.10
2023-05-08T17:27:51.215Z,2.67
2023-05-08T17:30:18.363Z,2.30
2023-05-08T17:32:48.289Z,2.20
2023-05-08T17:35:15.355Z,2.08
2023-05-08T17:37:42.179Z,2.00
2023-05-08T17:40:09.602Z,2.00
2023-05-08T17:42:36.648Z,2.30
2023-05-08T17:45:04.117Z,2.00
2023-05-08T17:47:31.842Z,2.33
2023-05-08T17:49:58.860Z,2.15
2023-05-08T17:52:25.865Z,2.00
2023-05-08T17:54:52.941Z,2.45
2023-05-08T17:57:19.917Z,2.60
2023-05-08T17:59:46.786Z,2.78
2023-05-08T18:02:13.724Z,3.00
2023-05-08T18:04:40.790Z,2.90
2023-05-08T18:07:07.877Z,2.65
2023-05-08T18:09:34.798Z,2.50
2023-05-08T18:12:01.841Z,2.65
2023-05-08T18:14:32.635Z,2.60
2023-05-08T18:17:00.913Z,2.60
2023-05-08T18:19:28.114Z,2.60
2023-05-08T18:21:55.033Z,2.70
2023-05-08T18:24:22.051Z,2.50
2023-05-08T18:26:50.588Z,2.40
2023-05-08T18:29:19.002Z,2.50
2023-05-08T18:31:48.528Z,2.58
2023-05-08T18:34:15.750Z,2.67
2023-05-08T18:36:43.129Z,2.60
2023-05-08T18:39:10.318Z,2.80
2023-05-08T18:41:37.313Z,2.40
2023-05-08T18:44:04.648Z,3.28
2023-05-08T18:46:34.828Z,2.80
2023-05-08T18:49:01.905Z,2.80
2023-05-08T18:51:28.981Z,2.78
2023-05-08T18:53:55.832Z,2.60
2023-05-08T18:56:23.079Z,2.45
2023-05-08T18:58:50.049Z,2.30
2023-05-08T19:01:18.944Z,2.55
2023-05-08T19:03:46.770Z,2.50
2023-05-08T19:06:16.842Z,2.50
2023-05-08T19:08:43.870Z,2.40
2023-05-08T19:11:10.976Z,2.40
2023-05-08T19:13:38.256Z,2.42
2023-05-08T19:16:06.638Z,2.65
2023-05-08T19:18:33.699Z,2.70
2023-05-08T19:21:04.357Z,2.80
2023-05-08T19:23:31.312Z,2.63
2023-05-08T19:25:58.432Z,2.70
2023-05-08T19:28:25.386Z,2.67
2023-05-08T19:30:53.976Z,2.83
2023-05-08T19:33:21.116Z,2.63
2023-05-08T19:35:48.556Z,2.70
2023-05-08T19:38:16.093Z,2.70
2023-05-08T19:40:55.705Z,2.67
2023-05-08T19:43:23.984Z,2.70
2023-05-08T19:45:51.128Z,2.60
2023-05-08T19:48:18.510Z,2.50
2023-05-08T19:50:45.679Z,2.30
2023-05-08T19:53:12.718Z,2.28
2023-05-08T19:55:39.722Z,2.30
2023-05-08T19:58:08.916Z,2.28
2023-05-08T20:00:35.945Z,2.30
2023-05-08T20:03:03.094Z,2.30
2023-05-08T20:05:30.626Z,2.30
2023-05-08T20:07:57.566Z,2.30
2023-05-08T20:10:24.652Z,2.20
2023-05-08T20:12:51.497Z,2.20
2023-05-08T20:15:18.646Z,2.35
2023-05-08T20:17:45.613Z,2.53
2023-05-08T20:20:13.168Z,2.30
2023-05-08T20:22:43.858Z,2.10
2023-05-08T20:25:10.699Z,2.27
2023-05-08T20:27:37.663Z,2.13
2023-05-08T20:30:06.688Z,2.10
2023-05-08T20:32:33.692Z,2.10
2023-05-08T20:35:00.754Z,2.40
2023-05-08T20:37:27.687Z,2.33
2023-05-08T20:39:54.731Z,2.55
2023-05-08T20:42:22.097Z,2.45
2023-05-08T20:44:49.052Z,2.22
2023-05-08T20:47:16.099Z,2.50
2023-05-08T20:49:43.051Z,2.50
2023-05-08T20:52:09.941Z,2.00
2023-05-08T20:54:36.813Z,2.15
2023-05-08T20:57:03.762Z,2.30
2023-05-08T20:59:30.753Z,2.80
2023-05-08T21:01:57.557Z,2.60
2023-05-08T21:04:24.466Z,2.22
2023-05-08T21:06:52.252Z,2.50
2023-05-08T21:09:19.378Z,2.22
2023-05-08T21:11:46.341Z,2.45
2023-05-08T21:14:13.239Z,2.17
2023-05-08T21:16:40.277Z,2.40
2023-05-08T21:19:07.307Z,2.95
2023-05-08T21:21:34.368Z,2.30
2023-05-08T21:24:01.288Z,2.15
2023-05-08T21:26:28.170Z,2.20
2023-05-08T21:28:55.208Z,2.33
2023-05-08T21:31:25.349Z,2.13
2023-05-08T21:33:52.250Z,2.40
2023-05-08T21:36:19.136Z,2.10
2023-05-08T21:38:46.067Z,2.23
2023-05-08T21:41:13.015Z,2.33
2023-05-08T21:43:39.927Z,2.00
2023-05-08T21:46:07.582Z,2.33
2023-05-08T21:48:34.759Z,2.15
2023-05-08T21:51:02.090Z,2.10
2023-05-08T21:53:29.231Z,2.28
2023-05-08T21:55:56.103Z,2.30
2023-05-08T21:58:23.098Z,2.10
2023-05-08T22:00:49.893Z,2.50
2023-05-08T22:03:16.835Z,2.10
2023-05-08T22:05:43.762Z,2.10
2023-05-08T22:08:10.743Z,2.30
2023-05-08T22:10:37.892Z,2.05
2023-05-08T22:13:04.830Z,2.10
2023-05-08T22:15:32.385Z,2.10
2023-05-08T22:17:59.942Z,2.00
2023-05-08T22:20:27.026Z,1.88
2023-05-08T22:22:53.959Z,2.30
2023-05-08T22:25:20.806Z,1.92
2023-05-08T22:27:48.260Z,1.90
2023-05-08T22:30:15.265Z,1.88
2023-05-08T22:32:42.162Z,1.80
2023-05-08T22:35:09.374Z,1.83
2023-05-08T22:37:36.286Z,1.90
2023-05-08T22:40:03.372Z,1.67
2023-05-08T22:42:30.552Z,2.20
2023-05-08T22:44:57.469Z,2.00
2023-05-08T22:47:24.466Z,1.98
2023-05-08T22:49:51.400Z,1.90
2023-05-08T22:52:18.294Z,2.03
2023-05-08T22:54:45.146Z,1.95
2023-05-08T22:57:12.031Z,2.15
2023-05-08T22:59:38.821Z,2.20
2023-05-08T23:02:05.691Z,2.25
2023-05-08T23:04:32.622Z,1.83
2023-05-08T23:06:59.415Z,1.75
2023-05-08T23:09:26.226Z,1.90
2023-05-08T23:11:53.549Z,2.10
2023-05-08T23:14:20.447Z,2.03
2023-05-08T23:16:47.732Z,2.10
2023-05-08T23:19:14.725Z,1.90
2023-05-08T23:21:41.575Z,2.05
2023-05-08T23:24:08.640Z,1.98
2023-05-08T23:26:35.521Z,2.15
2023-05-08T23:29:02.412Z,2.00
2023-05-08T23:31:29.310Z,2.10
2023-05-08T23:33:56.347Z,1.90
2023-05-08T23:36:23.501Z,2.10
2023-05-08T23:38:50.371Z,1.98
2023-05-08T23:41:17.257Z,1.87
2023-05-08T23:43:44.120Z,2.40
2023-05-08T23:46:10.891Z,2.20
2023-05-08T23:48:37.809Z,2.10
2023-05-08T23:51:04.937Z,2.00
2023-05-08T23:53:31.971Z,2.07
2023-05-08T23:55:58.904Z,1.98
2023-05-08T23:58:25.798Z,2.13
